Aérodrome :
LOGIN :

S'inscrire | Disclaimer

   EN    FR    IT 

 










Légende :    VFR   VFR Marginal   IFR   IFR Intensif   IFR Très Intensif
Visi : 
Plafond : 
>= 8 km
>= 3000ft
5 à 8 km
1000 à 3000 ft
1500m à 5 km
500 à 1000 ft
800 à 1500m
200 à 500 ft
< 800m
< 200 ft
Symboles :   Orages  Brouillard  Fortes neiges  Fortes précipitations  Vent > 20 kt
SIGMETs :   Divers  Orages  Givrage  Turbulence  Onde Orograph.  Cendres Volcan.







- Altitude de l'aérodrome : 49 ft
- Code IATA : GLZ


EHGR - Gilze-Rijen Airbase

DERNIER METAR :
  • 191325Z AUTO 30015KT 260V340 9999 FEW031 BKN044 OVC050 09/03 Q1019 BLU

METARs EXPIRÉS :
  • 191255Z AUTO 30013KT 260V330 9999 NCD 10/03 Q1019 BLU
  • 191225Z AUTO 30012KT 270V340 9999 SCT031 SCT045 09/04 Q1019 BLU
  • 191155Z AUTO 28011KT 250V310 9999 NCD 10/04 Q1019 BLU
  • 191125Z AUTO 29014KT 250V350 9999 FEW054 09/03 Q1018 BLU
  • 191055Z AUTO 27006KT 240V330 9999 SCT038 09/05 Q1018 BLU

Prévision TAF périmée.
Pas de NOTAMs connus pour ce terrain.



MET'MAP, la Météo Aéronautique d'un coup d'oeil ! - Copyright ORBIFLY Décembre 2007 - Disclaimer

ORBIFLY MET'MAP TEAM :

Programmation & Développement : Alexandra Zaïnal
Conception & Développement : Baudouin d'Aumeries
Co-Programmation & Développement : Marc-Olivier Méhu
Soutien technique & logistique : Manuel Goepfert

Contact : metmap@orbifly.com




SOURCES & CREDITS :

   NOAA